Kezdőlap
METAR-TAF:

METAR-TAF

Repülőterek :

Lappeenranta, Finnország

földrajzi szélesség: 61-02-45N, földrajzi hosszúság: 028-08-55E, magasság: 106 m

Jelenlegi meteorológiai megfigyelések

A jelentés 21 perccel ezelõtt készült, 03:20 UTC
Dél-délnyugati szél 5 kt, dél-délkeleti és délnyugati között változik
Hőmérséklet -9°C
Páratartalom 92%
Légköri nyomás 1009 hPa
Látótávolság 10 km, vagy több
Borult 700 lábon
enyhe hózápor

METAR: EFLP 230320Z AUTO 20005KT 150V230 9999 -SHSN OVC007 M09/M10 Q1009

Idő: 05:41 (03:41 UTC)


TAF: hiányzik

Meteorológiai megfigyelések és előrejelzések több, mint 4000 repülőtéren (METAR és TAF jelentéseket).

A térképen piros és sárga pontok jelzik az elérhető meteorológiai állomásokat.

Mozgassa az egeret a pont fölött, hogy megjelenjen az állomás neve.

Azután kattintson az időjárási megfigyelések és előrejelzések megtekintéséhez.

A térkép megváltoztatása: kattintson a fekete keresztel jelölt zöld gombra ráközelítéshez, a vonallal jelölt zöld gombra távolításhoz, vagy a zöld nyilakra a szomszédos térképek eléréséhez.


METAR-TAF: